Flight Track Log - Related Links

Times and Time Zones

All times are in EDT time to prevent confusion due to time zone crossing. See the N775NC flight status page for this flight to view local times or setup timezone preferences in your user account.

Time Position Orientation Groundspeed Altitude Reporting Facility
EDT Latitude Longitude Course Direction KTS MPH feet Rate Location/Type
Tue 05:28:24 PM 33.6333 -84.4667 188° South 195 224 2,400  Level Atlanta TRACON
Tue 05:29:18 PM 33.6000 -84.5333 239° Southwest 254 292 4,100 2,421 Climbing Atlanta TRACON
Tue 05:30:18 PM 33.5500 -84.6000 228° Southwest 260 299 7,000 2,612 Climbing Atlanta TRACON
Tue 05:31:00 PM 33.2830 -84.5806 230° Southwest  Level Estimated
Tue 05:31:45 PM 33.4467 -84.5889 175° South 284 327 10,500  Level Atlanta Center
Tue 05:32:00 PM 33.1900 -84.5961 188° South  Level FlightAware Approximate
Tue 05:32:45 PM 33.3653 -84.5711 170° South 289 333 11,900  Level Atlanta Center
Tue 05:33:00 PM 33.0969 -84.6117 188° South  Level FlightAware Approximate
Tue 05:33:45 PM 33.2817 -84.5533 170° South 319 367 12,800  Level Atlanta Center
Tue 05:34:45 PM 33.1839 -84.5278 168° South 347 399 15,200 2,100 Climbing Atlanta Center
Tue 05:35:45 PM 33.0836 -84.4975 166° South 361 415 17,000 1,850 Climbing Atlanta Center
Tue 05:36:45 PM 32.9856 -84.4797 171° South 361 415 18,900 1,650 Climbing Atlanta Center
Tue 05:37:45 PM 32.8917 -84.4964 188° South 348 400 20,300 1,200 Climbing Atlanta Center
Tue 05:38:45 PM 32.8019 -84.5133 189° South 353 406 21,300 900 Climbing Atlanta Center
Tue 05:39:45 PM 32.6869 -84.5300 187° South 359 413 22,100 400 Climbing Atlanta Center
Tue 05:40:45 PM 32.5806 -84.5589 193° South 382 440 22,100 -50 Level Atlanta Center
Tue 05:41:45 PM 32.4842 -84.5928 197° South 377 434 22,000 -50 Descending Atlanta Center
Tue 05:42:45 PM 32.3983 -84.6392 205° Southwest 358 412 22,000  Level Atlanta Center
Tue 05:43:45 PM 32.3128 -84.6753 200° South 342 394 22,000  Level Atlanta Center
Tue 05:46:02 PM 32.0961 -84.7783 202° Southwest 344 396 22,000  Level Jacksonville Center
Tue 05:47:02 PM 32.0056 -84.8281 205° Southwest 356 410 22,000  Level Jacksonville Center
Tue 05:48:02 PM 31.9150 -84.8800 206° Southwest 363 418 22,000 -200 Level Jacksonville Center
Tue 05:49:02 PM 31.8325 -84.9467 214° Southwest 368 423 21,600 -600 Descending Jacksonville Center
Tue 05:50:02 PM 31.7603 -85.0256 223° Southwest 368 423 20,800 -750 Descending Jacksonville Center
Tue 05:51:02 PM 31.6797 -85.0897 214° Southwest 363 418 20,100 -750 Descending Jacksonville Center
Tue 05:52:02 PM 31.5914 -85.1339 203° Southwest 357 411 19,300 -800 Descending Jacksonville Center
Tue 05:53:02 PM 31.5094 -85.1686 200° South 351 404 18,500 -1,000 Descending Jacksonville Center
Tue 05:53:20 PM 31.4756 -85.1847 202° Southwest 340 391 18,000 -1,100 Descending Jacksonville Center
Tue 05:54:02 PM 31.4189 -85.2125 203° Southwest 351 404 17,400 -1,479 Descending Jacksonville Center
Tue 05:54:33 PM 31.3683 -85.2333 199° South 343 395 16,200 -2,500 Descending Jacksonville Center
Tue 05:55:02 PM 31.3242 -85.2517 200° South 345 397 14,900 -2,600 Descending Jacksonville Center
Tue 05:55:33 PM 31.2842 -85.2700 201° Southwest 335 386 13,600 -2,900 Descending Jacksonville Center
Tue 05:56:02 PM 31.2378 -85.2883 199° South 340 391 12,000 -2,509 Descending Jacksonville Center
Tue 05:56:28 PM 31.2000 -85.3067 203° Southwest 333 383 11,300 -1,300 Descending Jacksonville Center
Tue 05:57:02 PM 31.1556 -85.3300 204° Southwest 329 379 10,700 -1,149 Descending Jacksonville Center
Tue 05:58:02 PM 31.0839 -85.3619 201° Southwest 304 350 9,500 -1,300 Descending Jacksonville Center
Tue 05:59:02 PM 31.0164 -85.3967 204° Southwest 283 326 8,100 -750 Descending Jacksonville Center
Tue 06:00:02 PM 30.9511 -85.4264 201° Southwest 264 304 8,000 -50 Descending Jacksonville Center
Tue 06:01:02 PM 30.8756 -85.4461 193° South 264 304 8,000  Level Jacksonville Center
Tue 06:02:02 PM 30.8000 -85.4658 193° South 274 315 8,000  Level Jacksonville Center
Tue 06:03:02 PM 30.7267 -85.4831 191° South 279 321 8,000 -850 Level Jacksonville Center
Tue 06:04:02 PM 30.6533 -85.4981 190° South 279 321 6,300 -1,650 Descending Jacksonville Center
Tue 06:05:02 PM 30.5797 -85.5225 196° South 279 321 4,700 -1,450 Descending Jacksonville Center
Tue 06:06:02 PM 30.5103 -85.5447 195° South 279 321 3,400 -850 Descending Jacksonville Center
Tue 06:07:02 PM 30.4553 -85.5867 213° Southwest 257 296 3,000 -300 Descending Jacksonville Center
Tue 06:08:02 PM 30.4039 -85.6358 220° Southwest 243 280 2,800 -600 Descending Jacksonville Center
Tue 06:09:02 PM 30.3572 -85.6753 216° Southwest 238 274 1,800 -700 Descending Jacksonville Center
Tue 06:10:02 PM 30.3208 -85.7175 225° Southwest 213 245 1,400 -550 Descending Jacksonville Center
Tue 06:11:02 PM 30.3156 -85.7656 263° West 168 193 700 -650 Descending Jacksonville Center
Tue 06:12:02 PM 30.3422 -85.7881 324° Northwest 121 139 100 -600 Descending Jacksonville Center

Login

Don't have an account? Register now (free) for customized features, flight alerts, and more!